Time;durP1;ratioP1;P1;durP2;ratioP2;P2;SDS_P1;SDS_P2;PMS_P1;PMS_P2;Temp;Humidity;BMP_temperature;BMP_pressure;BME280_temperature;BME280_humidity;BME280_pressure;Samples;Min_cycle;Max_cycle;Signal;HPM_P1;HPM_P2
2023/12/14 00:01:23;;;;;;;9.35;5.10;;;;;;;4.86;100.00;99584.78;10406206;28;20049;-82
2023/12/14 00:06:26;;;;;;;9.40;5.07;;;;;;;4.84;100.00;99595.50;10388587;28;20425;-81
2023/12/14 00:11:31;;;;;;;13.68;6.75;;;;;;;4.83;100.00;99607.13;10397836;28;20049;-81
2023/12/14 00:16:34;;;;;;;12.50;7.00;;;;;;;4.70;100.00;99606.28;10417913;28;21451;-81
2023/12/14 00:21:37;;;;;;;10.00;6.55;;;;;;;4.61;100.00;99616.59;10418111;28;20044;-81
2023/12/14 00:26:42;;;;;;;10.13;6.63;;;;;;;4.67;100.00;99625.09;10377274;28;20053;-82
2023/12/14 00:31:45;;;;;;;10.40;6.20;;;;;;;4.63;100.00;99632.44;10415122;28;20124;-81
2023/12/14 00:36:48;;;;;;;12.68;6.90;;;;;;;4.70;100.00;99640.84;10394359;28;20128;-81
2023/12/14 00:41:52;;;;;;;9.52;6.47;;;;;;;4.74;100.00;99655.63;10402322;28;20041;-81
2023/12/14 00:46:55;;;;;;;10.90;6.80;;;;;;;4.69;100.00;99648.00;10371167;28;20060;-80
2023/12/14 00:51:58;;;;;;;10.15;5.60;;;;;;;4.58;100.00;99662.03;10371728;28;20753;-80
2023/12/14 00:57:03;;;;;;;7.95;5.57;;;;;;;4.57;100.00;99665.63;10394453;28;20411;-82
2023/12/14 01:02:06;;;;;;;8.20;5.97;;;;;;;4.61;100.00;99668.94;10385216;28;20046;-81
2023/12/14 01:07:09;;;;;;;9.43;6.03;;;;;;;4.54;100.00;99689.75;10379570;28;20060;-80
2023/12/14 01:12:13;;;;;;;11.68;6.65;;;;;;;4.48;100.00;99684.88;10373143;28;20045;-80
2023/12/14 01:17:16;;;;;;;9.70;6.10;;;;;;;4.40;100.00;99705.78;10386373;28;20048;-81
2023/12/14 01:22:19;;;;;;;10.20;6.00;;;;;;;4.34;100.00;99719.50;10393770;28;20401;-81
2023/12/14 01:27:23;;;;;;;8.52;5.43;;;;;;;4.33;100.00;99721.31;10370253;28;20143;-80
2023/12/14 01:32:26;;;;;;;8.98;6.05;;;;;;;4.37;100.00;99729.94;10371414;28;20045;-80
2023/12/14 01:37:29;;;;;;;9.23;5.68;;;;;;;4.38;100.00;99736.94;10376176;28;20512;-80
2023/12/14 01:42:34;;;;;;;7.55;4.85;;;;;;;4.36;100.00;99742.38;10393760;28;20106;-81
2023/12/14 01:47:37;;;;;;;8.35;5.30;;;;;;;4.39;100.00;99739.50;10393501;28;20776;-80
2023/12/14 01:52:40;;;;;;;7.85;5.10;;;;;;;4.32;100.00;99761.28;10382790;28;20130;-81
2023/12/14 01:57:44;;;;;;;6.60;4.82;;;;;;;4.20;100.00;99776.22;10378643;28;20424;-80
2023/12/14 02:02:47;;;;;;;5.70;4.38;;;;;;;4.08;100.00;99791.13;10385953;28;20050;-81
2023/12/14 02:07:50;;;;;;;6.63;4.43;;;;;;;4.08;100.00;99812.41;10371378;28;20050;-81
2023/12/14 02:12:55;;;;;;;9.57;5.45;;;;;;;4.10;100.00;99813.16;10369117;28;20053;-80
2023/12/14 02:17:58;;;;;;;8.32;5.63;;;;;;;4.12;100.00;99816.59;10394608;28;20045;-79
2023/12/14 02:23:02;;;;;;;9.48;6.00;;;;;;;4.10;100.00;99818.47;10400004;28;20048;-80
2023/12/14 02:28:06;;;;;;;10.43;6.43;;;;;;;4.07;100.00;99823.16;10402227;28;20560;-81
2023/12/14 02:33:08;;;;;;;11.35;6.22;;;;;;;4.02;100.00;99831.41;10390884;28;20053;-80
2023/12/14 02:38:13;;;;;;;9.57;6.85;;;;;;;3.89;100.00;99830.44;10411408;28;20500;-80
2023/12/14 02:43:16;;;;;;;10.45;6.60;;;;;;;3.94;100.00;99847.81;10375051;28;20053;-79
2023/12/14 02:48:19;;;;;;;13.00;8.48;;;;;;;3.93;100.00;99847.94;10377397;28;20053;-82
2023/12/14 02:53:23;;;;;;;12.38;7.78;;;;;;;3.88;100.00;99860.63;10385152;28;20046;-79
2023/12/14 02:58:26;;;;;;;13.57;8.20;;;;;;;3.84;100.00;99865.28;10373889;28;20042;-81
2023/12/14 03:03:29;;;;;;;13.75;8.00;;;;;;;3.87;100.00;99866.91;10372746;28;20540;-80
2023/12/14 03:08:34;;;;;;;15.10;8.15;;;;;;;3.83;100.00;99882.16;10405866;28;20053;-81
2023/12/14 03:13:40;;;;;;;11.95;8.05;;;;;;;3.85;100.00;99887.41;10399549;28;20072;-80
2023/12/14 03:18:43;;;;;;;14.05;8.15;;;;;;;3.82;100.00;99895.56;10409079;28;20238;-81
2023/12/14 03:23:48;;;;;;;12.98;7.97;;;;;;;3.81;100.00;99905.31;10404427;28;20107;-82
2023/12/14 03:28:51;;;;;;;9.52;7.57;;;;;;;3.83;100.00;99913.19;10389005;28;20464;-81
2023/12/14 03:33:54;;;;;;;11.63;7.80;;;;;;;3.89;100.00;99911.00;10391258;28;20053;-81
2023/12/14 03:38:58;;;;;;;11.65;7.63;;;;;;;3.90;100.00;99914.56;10406742;28;20048;-80
2023/12/14 03:44:01;;;;;;;11.15;7.13;;;;;;;3.87;100.00;99931.53;10388757;28;20042;-81
2023/12/14 03:49:04;;;;;;;10.02;7.25;;;;;;;3.86;100.00;99939.59;10390018;28;20049;-80
2023/12/14 03:54:09;;;;;;;11.70;7.63;;;;;;;3.82;100.00;99956.69;10389424;28;20542;-80
2023/12/14 03:59:12;;;;;;;10.93;7.30;;;;;;;3.81;100.00;99963.75;10388615;28;20583;-81
2023/12/14 04:04:15;;;;;;;12.20;8.40;;;;;;;3.78;100.00;99968.41;10390471;28;20115;-79
2023/12/14 04:09:19;;;;;;;14.02;8.93;;;;;;;3.81;100.00;99977.03;10396470;28;20045;-81
2023/12/14 04:14:22;;;;;;;13.27;8.95;;;;;;;3.77;100.00;99966.72;10392005;28;20048;-80
2023/12/14 04:19:25;;;;;;;18.02;10.50;;;;;;;3.73;100.00;99972.22;10375200;28;20056;-79
2023/12/14 04:24:30;;;;;;;17.98;11.57;;;;;;;3.80;100.00;99982.47;10395847;28;20075;-80
2023/12/14 04:29:33;;;;;;;18.17;11.98;;;;;;;3.77;100.00;100004.75;10380316;28;20610;-80
2023/12/14 04:34:36;;;;;;;19.88;11.90;;;;;;;3.80;100.00;100017.00;10396815;28;20048;-81
2023/12/14 04:39:40;;;;;;;21.27;12.07;;;;;;;3.83;100.00;100027.47;10384379;28;20053;-81
2023/12/14 04:44:43;;;;;;;18.23;11.52;;;;;;;3.83;100.00;100030.13;10368208;28;20060;-79
2023/12/14 04:49:46;;;;;;;18.63;11.60;;;;;;;3.80;100.00;100043.59;10366237;28;20693;-79
2023/12/14 04:54:50;;;;;;;16.65;11.20;;;;;;;3.73;100.00;100040.44;10402110;28;20059;-79
2023/12/14 04:59:53;;;;;;;17.48;10.68;;;;;;;3.64;100.00;100047.13;10386573;28;20056;-80
2023/12/14 05:04:56;;;;;;;21.75;12.05;;;;;;;3.66;100.00;100061.16;10391549;28;20052;-80
2023/12/14 05:10:00;;;;;;;16.98;10.90;;;;;;;3.64;100.00;100062.19;10398373;28;20060;-79
2023/12/14 05:15:04;;;;;;;19.67;11.13;;;;;;;3.62;100.00;100080.91;10397469;28;20052;-80
2023/12/14 05:20:09;;;;;;;19.35;10.88;;;;;;;3.62;100.00;100091.53;10400724;28;20771;-81
2023/12/14 05:25:14;;;;;;;16.73;10.05;;;;;;;3.60;100.00;100101.38;10369414;28;20049;-80
2023/12/14 05:30:17;;;;;;;13.73;9.52;;;;;;;3.58;100.00;100108.56;10392530;28;20042;-81
2023/12/14 05:35:21;;;;;;;15.98;10.43;;;;;;;3.62;100.00;100112.78;10381955;28;20057;-81
2023/12/14 05:40:25;;;;;;;13.68;9.75;;;;;;;3.54;100.00;100116.78;10385684;28;20584;-80
2023/12/14 05:45:28;;;;;;;11.40;7.03;;;;;;;3.48;100.00;100131.25;10369269;28;20675;-80
2023/12/14 05:50:32;;;;;;;12.93;7.97;;;;;;;3.54;100.00;100135.38;10378397;28;20049;-80
2023/12/14 05:55:38;;;;;;;12.80;8.00;;;;;;;3.49;100.00;100130.34;10390356;28;20053;-80
2023/12/14 06:00:41;;;;;;;13.43;8.85;;;;;;;3.52;100.00;100150.56;10409002;28;20045;-80
2023/12/14 06:05:44;;;;;;;11.93;8.73;;;;;;;3.55;100.00;100156.53;10387986;28;20094;-79
2023/12/14 06:10:49;;;;;;;13.25;9.02;;;;;;;3.53;100.00;100168.19;10398849;28;20053;-81
2023/12/14 06:15:52;;;;;;;12.38;8.32;;;;;;;3.54;100.00;100165.47;10392883;28;20053;-81
2023/12/14 06:20:55;;;;;;;11.98;8.32;;;;;;;3.53;100.00;100165.53;10384474;28;20056;-80
2023/12/14 06:25:59;;;;;;;14.05;9.20;;;;;;;3.52;100.00;100171.81;10395012;28;20582;-80
2023/12/14 06:31:02;;;;;;;12.70;9.13;;;;;;;3.48;100.00;100181.72;10388640;28;20141;-80
2023/12/14 06:36:06;;;;;;;14.27;10.02;;;;;;;3.46;100.00;100189.78;10407793;28;20720;-81
2023/12/14 06:41:19;;;;;;;13.88;9.38;;;;;;;3.48;100.00;100195.88;10396744;28;20049;-80
2023/12/14 06:46:22;;;;;;;14.27;9.60;;;;;;;3.59;100.00;100210.34;10404661;28;20607;-79
2023/12/14 06:51:25;;;;;;;15.10;9.93;;;;;;;3.61;100.00;100214.63;10392418;28;20049;-80
2023/12/14 06:56:30;;;;;;;12.43;8.80;;;;;;;3.54;100.00;100226.56;10393182;28;20049;-80
2023/12/14 07:01:33;;;;;;;15.98;9.35;;;;;;;3.50;100.00;100243.59;10406904;28;21125;-82
2023/12/14 07:06:36;;;;;;;14.73;10.05;;;;;;;3.55;100.00;100246.00;10375440;28;20064;-80
2023/12/14 07:11:40;;;;;;;16.17;10.60;;;;;;;3.48;100.00;100264.03;10374780;28;20046;-80
2023/12/14 07:16:43;;;;;;;15.52;11.48;;;;;;;3.40;100.00;100272.44;10396393;28;20045;-80
2023/12/14 07:21:46;;;;;;;14.80;11.15;;;;;;;3.37;100.00;100292.97;10413839;28;20053;-81
2023/12/14 07:26:50;;;;;;;17.10;11.75;;;;;;;3.42;100.00;100301.56;10394363;28;21479;-80
2023/12/14 07:31:53;;;;;;;15.23;11.07;;;;;;;3.31;100.00;100326.00;10410648;28;20069;-81
2023/12/14 07:36:56;;;;;;;14.32;10.32;;;;;;;3.39;100.00;100336.25;10390638;28;20056;-81
2023/12/14 07:42:01;;;;;;;16.00;10.45;;;;;;;3.46;100.00;100349.13;10391388;28;20049;-82
2023/12/14 07:47:04;;;;;;;14.38;9.65;;;;;;;3.46;100.00;100356.25;10375111;28;20056;-81
2023/12/14 07:52:07;;;;;;;15.93;9.55;;;;;;;4.08;100.00;100364.44;10377894;28;20158;-81
2023/12/14 07:57:11;;;;;;;23.08;13.73;;;;;;;4.64;100.00;100359.59;10391465;28;20393;-80
2023/12/14 08:02:15;;;;;;;9.88;8.20;;;;;;;4.79;100.00;100374.69;10386738;28;20682;-80
2023/12/14 08:07:18;;;;;;;10.52;6.07;;;;;;;4.66;100.00;100381.66;10366586;28;20471;-80
2023/12/14 08:12:23;;;;;;;10.02;6.30;;;;;;;4.83;100.00;100401.06;10391793;28;20045;-80
2023/12/14 08:17:27;;;;;;;7.45;6.75;;;;;;;4.62;100.00;100408.44;10391277;28;20052;-80
2023/12/14 08:22:31;;;;;;;6.38;5.30;;;;;;;4.10;100.00;100419.25;10402247;28;20393;-79
2023/12/14 08:27:35;;;;;;;8.23;6.55;;;;;;;3.88;100.00;100437.28;10405005;28;20131;-81
2023/12/14 08:32:38;;;;;;;7.38;6.45;;;;;;;3.72;100.00;100448.69;10406718;28;20053;-79
2023/12/14 08:37:43;;;;;;;7.55;6.72;;;;;;;3.65;100.00;100454.44;10403818;28;20110;-80
2023/12/14 08:42:49;;;;;;;7.78;6.85;;;;;;;3.56;100.00;100455.72;10407741;28;20037;-80
2023/12/14 08:47:52;;;;;;;9.27;7.30;;;;;;;3.55;100.00;100467.31;10403608;28;20049;-79
2023/12/14 08:52:55;;;;;;;7.97;6.85;;;;;;;3.56;100.00;100466.34;10396416;28;20055;-79
2023/12/14 08:58:04;;;;;;;7.85;6.70;;;;;;;3.53;100.00;100471.84;10411558;28;20187;-80
2023/12/14 09:03:07;;;;;;;10.38;6.75;;;;;;;3.62;100.00;100473.16;10427582;28;20065;-81
2023/12/14 09:08:11;;;;;;;6.85;5.82;;;;;;;3.66;100.00;100485.38;10428799;28;20416;-81
2023/12/14 09:13:16;;;;;;;7.05;6.35;;;;;;;3.65;100.00;100496.94;10394132;28;20049;-80
2023/12/14 09:18:20;;;;;;;6.93;6.22;;;;;;;3.70;100.00;100511.72;10407580;28;20629;-80
2023/12/14 09:23:23;;;;;;;5.80;5.13;;;;;;;3.58;100.00;100514.13;10390658;28;20054;-80
2023/12/14 09:28:27;;;;;;;7.07;5.85;;;;;;;3.58;100.00;100507.00;10396953;28;20056;-79
2023/12/14 09:33:30;;;;;;;7.35;5.82;;;;;;;3.55;100.00;100531.06;10393272;28;20049;-81
2023/12/14 09:38:33;;;;;;;6.80;6.20;;;;;;;3.55;100.00;100540.84;10402781;28;20188;-79
2023/12/14 09:43:39;;;;;;;8.25;7.45;;;;;;;3.65;100.00;100540.31;10415424;28;20045;-80
2023/12/14 09:48:42;;;;;;;8.48;7.53;;;;;;;3.71;100.00;100545.31;10389250;28;20050;-79
2023/12/14 09:53:46;;;;;;;8.57;7.15;;;;;;;3.67;100.00;100559.66;10391602;28;20534;-79
2023/12/14 09:58:50;;;;;;;9.13;7.60;;;;;;;3.70;100.00;100563.97;10419731;28;20044;-78
2023/12/14 10:04:08;;;;;;;9.27;7.55;;;;;;;3.74;100.00;100565.53;10377872;28;20239;-81
2023/12/14 10:09:13;;;;;;;10.82;8.63;;;;;;;3.70;100.00;100570.16;10412779;28;20045;-80
2023/12/14 10:14:22;;;;;;;10.63;8.07;;;;;;;3.79;100.00;100587.44;10392537;28;20049;-79
2023/12/14 10:19:26;;;;;;;11.02;8.25;;;;;;;3.86;100.00;100598.63;10398505;28;20440;-80
2023/12/14 10:24:29;;;;;;;10.77;8.20;;;;;;;3.80;100.00;100598.94;10394767;28;20102;-79
2023/12/14 10:29:35;;;;;;;11.57;8.13;;;;;;;3.71;100.00;100609.06;10396119;28;20045;-79
2023/12/14 10:34:38;;;;;;;11.32;8.52;;;;;;;3.97;100.00;100614.03;10402776;28;20623;-80
2023/12/14 10:39:43;;;;;;;10.93;8.52;;;;;;;4.02;100.00;100610.19;10381430;28;20150;-79
2023/12/14 10:44:52;;;;;;;10.75;8.02;;;;;;;4.10;100.00;100625.78;10406340;28;20049;-80
2023/12/14 10:50:00;;;;;;;10.23;8.60;;;;;;;4.17;100.00;100624.53;10387558;28;20045;-79
2023/12/14 10:55:08;;;;;;;10.70;8.15;;;;;;;4.22;100.00;100634.94;10381517;28;20055;-79
2023/12/14 11:00:15;;;;;;;8.93;7.25;;;;;;;4.13;100.00;100630.94;10411150;28;20049;-79
2023/12/14 11:05:22;;;;;;;9.85;7.45;;;;;;;4.17;100.00;100629.88;10402454;28;20045;-80
2023/12/14 11:10:29;;;;;;;11.50;7.03;;;;;;;4.12;100.00;100637.19;10418523;28;20806;-79
2023/12/14 11:15:35;;;;;;;7.00;6.20;;;;;;;4.05;100.00;100647.25;10399674;28;20626;-80
2023/12/14 11:20:49;;;;;;;6.90;6.18;;;;;;;4.19;100.00;100651.91;10387483;28;20119;-79
2023/12/14 11:25:53;;;;;;;6.97;6.28;;;;;;;4.32;100.00;100660.13;10412747;28;20065;-80
2023/12/14 11:31:06;;;;;;;7.65;6.85;;;;;;;4.39;100.00;100672.19;10391749;28;20405;-78
2023/12/14 11:36:10;;;;;;;7.18;6.00;;;;;;;4.36;100.00;100678.53;10409155;28;20526;-80
2023/12/14 11:41:13;;;;;;;7.28;5.88;;;;;;;4.40;100.00;100680.06;10413834;28;20048;-80
2023/12/14 11:46:18;;;;;;;7.03;5.57;;;;;;;4.29;100.00;100694.84;10374881;28;20042;-79
2023/12/14 11:51:21;;;;;;;7.88;5.63;;;;;;;4.46;100.00;100692.19;10390337;28;20049;-78
2023/12/14 11:56:25;;;;;;;5.88;5.20;;;;;;;4.48;100.00;100700.97;10415651;28;20054;-81
2023/12/14 12:01:31;;;;;;;6.55;5.78;;;;;;;4.86;100.00;100689.31;10403596;28;20052;-81
2023/12/14 12:06:34;;;;;;;6.10;5.60;;;;;;;6.18;100.00;100693.59;10398447;28;20045;-80
2023/12/14 12:11:37;;;;;;;5.30;4.80;;;;;;;6.15;100.00;100707.09;10406806;28;20171;-80
2023/12/14 12:16:42;;;;;;;5.18;4.78;;;;;;;6.20;100.00;100702.38;10400226;28;20064;-80
2023/12/14 12:21:45;;;;;;;5.10;4.68;;;;;;;6.33;100.00;100711.34;10397164;28;20076;-79
2023/12/14 12:26:48;;;;;;;5.20;4.65;;;;;;;6.55;100.00;100708.28;10405954;28;20037;-80
2023/12/14 12:31:52;;;;;;;5.35;4.32;;;;;;;6.02;100.00;100722.09;10393844;28;20052;-80
2023/12/14 12:36:57;;;;;;;5.38;4.63;;;;;;;5.36;99.83;100739.91;10397302;28;20634;-80
2023/12/14 12:42:00;;;;;;;5.22;4.72;;;;;;;5.21;100.00;100720.28;10381465;28;20429;-80
2023/12/14 12:47:05;;;;;;;6.10;4.63;;;;;;;4.99;100.00;100733.00;10388072;28;20053;-80
2023/12/14 12:52:13;;;;;;;6.72;4.68;;;;;;;5.08;100.00;100727.19;10372556;28;20045;-84
2023/12/14 12:57:17;;;;;;;5.20;4.60;;;;;;;5.31;100.00;100735.75;10370470;28;20088;-81
2023/12/14 13:02:22;;;;;;;5.85;5.32;;;;;;;5.36;100.00;100731.06;10390545;28;20049;-81
2023/12/14 13:07:25;;;;;;;6.97;5.55;;;;;;;5.63;100.00;100726.88;10390647;28;20049;-81
2023/12/14 13:12:28;;;;;;;6.38;5.43;;;;;;;5.39;100.00;100741.53;10399117;28;20106;-81
2023/12/14 13:17:32;;;;;;;6.38;5.63;;;;;;;5.05;92.68;100743.34;10421774;28;20508;-81
2023/12/14 13:22:36;;;;;;;5.55;5.00;;;;;;;4.78;94.06;100750.91;10407784;28;20049;-80
2023/12/14 13:27:39;;;;;;;7.30;5.50;;;;;;;5.00;100.00;100758.69;10400817;28;20045;-81
2023/12/14 13:32:43;;;;;;;6.55;5.90;;;;;;;5.30;100.00;100768.69;10408137;28;20052;-81
2023/12/14 13:37:47;;;;;;;5.45;4.95;;;;;;;5.26;100.00;100766.16;10407244;28;21576;-82
2023/12/14 13:42:50;;;;;;;4.88;4.45;;;;;;;5.15;97.93;100773.84;10411500;28;20037;-80
2023/12/14 13:48:09;;;;;;;4.75;4.35;;;;;;;4.90;97.17;100789.34;10409592;28;20515;-79
2023/12/14 13:53:13;;;;;;;5.93;4.55;;;;;;;4.67;90.83;100803.81;10408118;28;20053;-78
2023/12/14 13:58:19;;;;;;;4.82;3.90;;;;;;;5.15;97.50;100811.13;10395568;28;20045;-78
2023/12/14 14:03:23;;;;;;;4.32;3.92;;;;;;;4.84;91.25;100825.13;10410753;28;20200;-78
2023/12/14 14:08:26;;;;;;;4.18;3.65;;;;;;;4.65;89.83;100842.94;10414958;28;20148;-78
2023/12/14 14:13:30;;;;;;;4.35;3.90;;;;;;;4.53;90.79;100855.06;10396744;28;20065;-79
2023/12/14 14:18:34;;;;;;;8.45;4.30;;;;;;;4.50;91.21;100866.72;10427749;28;20052;-78
2023/12/14 14:23:38;;;;;;;5.00;4.50;;;;;;;4.46;90.69;100864.25;10414774;28;20174;-78
2023/12/14 14:28:40;;;;;;;6.32;4.88;;;;;;;4.30;89.28;100880.09;10404264;28;20045;-80
2023/12/14 14:33:47;;;;;;;5.95;4.88;;;;;;;4.27;89.02;100898.84;10409581;28;20057;-79
2023/12/14 14:38:50;;;;;;;6.22;4.40;;;;;;;4.30;89.93;100918.19;10409590;28;20041;-78
2023/12/14 14:43:53;;;;;;;10.35;5.18;;;;;;;4.02;90.84;100926.56;10401931;28;20541;-78
2023/12/14 14:49:00;;;;;;;7.20;5.45;;;;;;;4.33;92.13;100917.16;10422512;28;20053;-79
2023/12/14 14:54:03;;;;;;;8.63;5.50;;;;;;;4.35;90.59;100923.28;10421535;28;20118;-79
2023/12/14 14:59:09;;;;;;;6.45;5.63;;;;;;;4.30;91.95;100928.81;10417865;28;20052;-80
2023/12/14 15:04:13;;;;;;;8.07;5.93;;;;;;;4.21;90.72;100944.34;10413267;28;20212;-79
2023/12/14 15:09:16;;;;;;;7.68;5.50;;;;;;;3.98;90.93;100946.25;10411310;28;20045;-79
2023/12/14 15:14:19;;;;;;;9.27;5.85;;;;;;;4.05;91.86;100963.63;10410411;28;20056;-79
2023/12/14 15:19:24;;;;;;;9.18;6.50;;;;;;;4.06;94.19;100962.72;10411819;28;20037;-80
2023/12/14 15:24:27;;;;;;;8.20;6.65;;;;;;;4.02;92.41;100966.44;10409666;28;20060;-76
2023/12/14 15:29:30;;;;;;;7.65;6.55;;;;;;;4.13;93.81;100976.59;10404342;28;21182;-80
2023/12/14 15:34:35;;;;;;;10.10;7.32;;;;;;;4.13;93.11;100976.59;10403929;28;20056;-79
2023/12/14 15:39:37;;;;;;;9.15;7.45;;;;;;;4.00;92.11;100986.03;10410078;28;20049;-80
2023/12/14 15:44:40;;;;;;;10.75;7.78;;;;;;;4.02;92.37;100993.03;10400428;28;20067;-79
2023/12/14 15:49:45;;;;;;;10.90;8.13;;;;;;;4.08;93.72;100997.22;10400598;28;20045;-80
2023/12/14 15:54:48;;;;;;;13.13;8.23;;;;;;;4.12;93.40;100999.66;10405236;28;20053;-79
2023/12/14 15:59:51;;;;;;;12.18;8.73;;;;;;;4.18;94.15;101004.72;10415338;28;20048;-80
2023/12/14 16:04:56;;;;;;;14.13;7.88;;;;;;;3.97;92.79;101018.94;10403696;28;20045;-80
2023/12/14 16:09:59;;;;;;;11.18;8.60;;;;;;;3.92;92.54;101024.47;10410777;28;21882;-79
2023/12/14 16:15:03;;;;;;;10.95;7.72;;;;;;;3.98;92.64;101025.13;10414867;28;20041;-77
2023/12/14 16:20:08;;;;;;;11.65;8.70;;;;;;;4.07;91.52;101038.88;10417320;28;20048;-81
2023/12/14 16:25:11;;;;;;;11.85;8.13;;;;;;;3.99;91.22;101045.47;10410535;28;20051;-81
2023/12/14 16:30:15;;;;;;;14.63;9.50;;;;;;;3.90;91.32;101047.59;10394248;28;20084;-81
2023/12/14 16:35:20;;;;;;;14.05;9.38;;;;;;;3.77;92.91;101061.47;10402807;28;20056;-82
2023/12/14 16:40:23;;;;;;;15.95;10.43;;;;;;;3.76;92.87;101065.03;10389164;28;20049;-80
2023/12/14 16:45:26;;;;;;;18.83;10.63;;;;;;;3.92;92.22;101067.00;10380940;28;21214;-80
2023/12/14 16:50:30;;;;;;;16.27;10.95;;;;;;;3.98;92.42;101083.59;10390131;28;20178;-79
2023/12/14 16:55:33;;;;;;;18.08;12.15;;;;;;;4.00;92.71;101095.03;10386257;28;20131;-79
2023/12/14 17:00:36;;;;;;;18.95;11.52;;;;;;;4.07;93.30;101097.38;10371593;28;21214;-81
2023/12/14 17:05:41;;;;;;;18.33;11.88;;;;;;;3.94;94.22;101109.47;10402663;28;21127;-80
2023/12/14 17:10:44;;;;;;;20.45;13.90;;;;;;;3.83;94.68;101115.22;10408028;28;20059;-80
2023/12/14 17:15:47;;;;;;;21.55;13.40;;;;;;;4.06;94.22;101119.59;10404878;28;20428;-81
2023/12/14 17:20:51;;;;;;;22.92;14.25;;;;;;;4.08;94.46;101122.19;10402079;28;20046;-80
2023/12/14 17:25:54;;;;;;;22.60;14.85;;;;;;;4.01;94.47;101128.69;10394595;28;20061;-80
2023/12/14 17:30:57;;;;;;;25.45;16.27;;;;;;;4.08;94.85;101138.13;10414114;28;20658;-79
2023/12/14 17:36:02;;;;;;;28.35;16.08;;;;;;;3.97;94.80;101146.56;10405635;28;20045;-79
2023/12/14 17:41:09;;;;;;;29.05;17.23;;;;;;;3.60;97.03;101150.72;10405868;28;20053;-80
2023/12/14 17:46:15;;;;;;;31.80;16.85;;;;;;;3.92;96.11;101156.50;10395437;28;20048;-81
2023/12/14 17:51:19;;;;;;;29.70;18.35;;;;;;;3.94;96.03;101165.28;10413915;28;20045;-78
2023/12/14 17:56:22;;;;;;;31.02;18.90;;;;;;;3.65;98.34;101174.47;10432991;28;20420;-80
2023/12/14 18:01:26;;;;;;;33.03;17.30;;;;;;;3.77;98.01;101178.41;10405993;28;20053;-81
2023/12/14 18:06:30;;;;;;;33.20;19.70;;;;;;;3.76;97.60;101187.28;10405994;28;20045;-80
2023/12/14 18:11:33;;;;;;;33.72;20.70;;;;;;;3.74;97.34;101184.72;10415506;28;20044;-80
2023/12/14 18:16:38;;;;;;;33.63;19.38;;;;;;;3.73;97.47;101193.63;10410372;28;20056;-79
2023/12/14 18:21:44;;;;;;;37.25;19.35;;;;;;;3.43;99.25;101201.84;10412081;28;20059;-80
2023/12/14 18:26:47;;;;;;;35.00;20.63;;;;;;;3.66;98.56;101208.91;10423136;28;20045;-78
2023/12/14 18:31:50;;;;;;;37.97;19.98;;;;;;;3.42;99.59;101218.69;10416953;28;20059;-82
2023/12/14 18:36:55;;;;;;;42.67;20.92;;;;;;;3.58;99.21;101226.09;10413580;28;20045;-79
2023/12/14 18:41:58;;;;;;;39.20;21.40;;;;;;;3.55;99.60;101236.84;10411809;28;20045;-79
2023/12/14 18:47:01;;;;;;;36.38;20.77;;;;;;;3.41;100.00;101253.31;10409318;28;20613;-81
2023/12/14 18:52:05;;;;;;;39.55;21.50;;;;;;;3.63;98.94;101266.66;10415637;28;20045;-80
2023/12/14 18:57:08;;;;;;;41.65;23.55;;;;;;;3.89;98.05;101268.28;10414632;28;20041;-81
2023/12/14 19:02:11;;;;;;;45.00;23.67;;;;;;;3.94;97.41;101266.31;10407193;28;20070;-77
2023/12/14 19:07:18;;;;;;;43.05;23.10;;;;;;;3.89;97.34;101273.59;10410394;28;20526;-80
2023/12/14 19:12:21;;;;;;;42.20;23.40;;;;;;;3.46;99.08;101277.91;10404386;28;21066;-81
2023/12/14 19:17:25;;;;;;;41.03;22.98;;;;;;;3.81;97.82;101284.53;10407090;28;20124;-80
2023/12/14 19:22:30;;;;;;;44.15;22.52;;;;;;;3.91;96.78;101277.06;10396725;28;20375;-79
2023/12/14 19:27:33;;;;;;;43.03;22.52;;;;;;;3.43;98.46;101288.66;10400755;28;20045;-80
2023/12/14 19:32:37;;;;;;;40.25;21.15;;;;;;;3.85;97.05;101293.25;10384287;28;20046;-81
2023/12/14 19:37:42;;;;;;;42.42;22.77;;;;;;;3.59;97.87;101305.72;10392969;28;20056;-78
2023/12/14 19:42:45;;;;;;;45.13;22.38;;;;;;;3.78;97.18;101315.69;10401115;28;20049;-82
2023/12/14 19:47:48;;;;;;;39.45;20.42;;;;;;;3.66;96.29;101317.88;10408525;28;20126;-80
2023/12/14 19:52:52;;;;;;;44.13;22.65;;;;;;;3.51;98.01;101315.78;10393499;28;20049;-80
2023/12/14 19:57:56;;;;;;;44.65;22.42;;;;;;;3.77;96.56;101325.44;10414275;28;20052;-79
2023/12/14 20:02:59;;;;;;;43.38;21.33;;;;;;;3.82;95.86;101320.81;10425134;28;20044;-80
2023/12/14 20:08:04;;;;;;;38.72;20.08;;;;;;;3.84;95.33;101321.66;10412084;28;20130;-78
2023/12/14 20:13:09;;;;;;;41.15;20.98;;;;;;;3.81;95.21;101334.16;10414484;28;20053;-79
2023/12/14 20:18:12;;;;;;;41.70;21.55;;;;;;;3.76;95.26;101339.66;10410577;28;20060;-81
2023/12/14 20:23:17;;;;;;;39.60;20.60;;;;;;;3.72;95.28;101351.31;10376530;28;20055;-81
2023/12/14 20:28:20;;;;;;;43.05;21.38;;;;;;;3.66;95.51;101351.56;10383271;28;20045;-80
2023/12/14 20:33:23;;;;;;;40.50;19.85;;;;;;;3.82;94.28;101357.19;10373947;28;20052;-80
2023/12/14 20:38:27;;;;;;;38.35;20.30;;;;;;;3.79;94.43;101362.63;10403299;28;20968;-78
2023/12/14 20:43:31;;;;;;;43.28;19.73;;;;;;;3.53;95.23;101372.38;10410173;28;20060;-79
2023/12/14 20:48:34;;;;;;;40.75;18.98;;;;;;;3.46;95.50;101376.19;10420711;28;20504;-80
2023/12/14 20:53:38;;;;;;;40.22;19.25;;;;;;;3.40;96.08;101385.25;10407884;28;20041;-79
2023/12/14 20:58:42;;;;;;;37.58;19.38;;;;;;;3.33;96.63;101378.41;10407303;28;20628;-78
2023/12/14 21:03:49;;;;;;;40.17;19.67;;;;;;;2.86;100.00;101394.16;10422840;28;20053;-79
2023/12/14 21:08:54;;;;;;;43.13;21.58;;;;;;;2.83;99.98;101395.13;10399200;28;20041;-78
2023/12/14 21:13:58;;;;;;;43.47;21.63;;;;;;;3.03;98.82;101397.13;10405706;28;20045;-78
2023/12/14 21:19:01;;;;;;;42.55;20.17;;;;;;;2.82;99.75;101409.31;10400707;28;20757;-80
2023/12/14 21:24:06;;;;;;;45.60;21.27;;;;;;;2.98;98.22;101404.38;10404589;28;20052;-79
2023/12/14 21:29:09;;;;;;;47.67;22.98;;;;;;;2.88;98.66;101412.69;10421875;28;20041;-79
2023/12/14 21:34:12;;;;;;;47.20;22.95;;;;;;;2.68;99.61;101413.34;10406269;28;20041;-79
2023/12/14 21:39:17;;;;;;;47.80;22.90;;;;;;;2.68;99.33;101413.34;10415122;28;20048;-80
2023/12/14 21:44:20;;;;;;;51.65;24.15;;;;;;;2.64;99.16;101427.63;10402217;28;20089;-79
2023/12/14 21:49:23;;;;;;;49.70;22.60;;;;;;;2.63;98.25;101423.22;10417002;28;20052;-79
2023/12/14 21:54:27;;;;;;;49.97;22.65;;;;;;;2.71;97.90;101429.16;10429575;28;20056;-79
2023/12/14 21:59:31;;;;;;;47.17;22.63;;;;;;;2.72;97.45;101436.22;10417661;28;20041;-81
2023/12/14 22:04:35;;;;;;;56.53;23.45;;;;;;;2.58;98.04;101445.47;10419068;28;20516;-79
2023/12/14 22:09:40;;;;;;;48.38;22.52;;;;;;;2.53;99.04;101450.03;10416538;28;20064;-78
2023/12/14 22:14:43;;;;;;;47.75;21.60;;;;;;;2.58;98.12;101461.38;10414904;28;20405;-78
2023/12/14 22:19:46;;;;;;;50.38;24.15;;;;;;;2.48;98.77;101469.63;10398198;28;20045;-79
2023/12/14 22:24:50;;;;;;;54.08;23.85;;;;;;;2.49;98.76;101468.72;10409633;28;20052;-79
2023/12/14 22:29:53;;;;;;;50.30;22.30;;;;;;;2.37;99.15;101480.56;10399626;28;20046;-80
2023/12/14 22:34:56;;;;;;;48.05;23.05;;;;;;;2.43;99.68;101483.03;10376676;28;20501;-80
2023/12/14 22:40:01;;;;;;;51.05;22.20;;;;;;;2.59;98.58;101484.34;10389970;28;20158;-78
2023/12/14 22:45:04;;;;;;;49.67;21.67;;;;;;;2.60;98.27;101480.75;10399600;28;20053;-79
2023/12/14 22:50:09;;;;;;;46.67;22.13;;;;;;;2.53;98.72;101488.94;10384193;28;20072;-78
2023/12/14 22:55:14;;;;;;;46.58;21.48;;;;;;;2.59;98.14;101494.09;10391688;28;21207;-78
2023/12/14 23:00:21;;;;;;;48.08;21.38;;;;;;;2.64;97.41;101508.09;10399622;28;20053;-79
2023/12/14 23:05:25;;;;;;;43.90;21.77;;;;;;;2.57;97.70;101510.03;10393771;28;20052;-80
2023/12/14 23:10:29;;;;;;;41.40;17.90;;;;;;;2.58;97.36;101519.75;10410379;28;20041;-79